createdAt,value
2023-05-08T00:04:38.004Z,22.38
2023-05-08T00:09:42.564Z,24.27
2023-05-08T00:14:45.634Z,22.98
2023-05-08T00:19:48.796Z,31.25
2023-05-08T00:24:53.262Z,24.35
2023-05-08T00:29:56.621Z,28.55
2023-05-08T00:34:59.760Z,23.02
2023-05-08T00:40:04.382Z,25.45
2023-05-08T00:45:08.098Z,28.60
2023-05-08T00:50:12.056Z,23.52
2023-05-08T00:55:16.877Z,22.65
2023-05-08T01:00:21.597Z,19.75
2023-05-08T01:05:24.906Z,19.90
2023-05-08T01:10:33.957Z,21.92
2023-05-08T01:15:39.696Z,28.33
2023-05-08T01:20:46.148Z,29.00
2023-05-08T01:26:07.442Z,30.98
2023-05-08T01:31:16.159Z,28.80
2023-05-08T01:36:24.739Z,27.42
2023-05-08T01:41:29.289Z,25.23
2023-05-08T01:46:33.997Z,27.23
2023-05-08T01:51:41.442Z,24.92
2023-05-08T01:56:45.765Z,24.80
2023-05-08T02:01:49.285Z,30.48
2023-05-08T02:06:53.919Z,26.70
2023-05-08T02:11:57.766Z,24.17
2023-05-08T02:17:01.975Z,24.10
2023-05-08T02:22:06.632Z,24.15
2023-05-08T02:27:10.574Z,22.70
2023-05-08T02:32:14.351Z,25.70
2023-05-08T02:37:20.893Z,28.33
2023-05-08T02:42:24.033Z,25.33
2023-05-08T02:47:28.698Z,22.70
2023-05-08T02:52:37.052Z,31.08
2023-05-08T02:57:44.694Z,30.30
2023-05-08T03:02:50.745Z,26.27
2023-05-08T03:07:57.084Z,27.27
2023-05-08T03:13:01.154Z,27.77
2023-05-08T03:18:07.810Z,30.35
2023-05-08T03:23:13.772Z,26.02
2023-05-08T03:28:17.097Z,29.10
2023-05-08T03:33:20.757Z,25.85
2023-05-08T03:38:25.364Z,28.08
2023-05-08T03:43:29.138Z,26.10
2023-05-08T03:48:33.532Z,27.20
2023-05-08T03:53:39.091Z,29.00
2023-05-08T03:58:44.427Z,32.50
2023-05-08T04:03:54.932Z,28.13
2023-05-08T04:09:06.827Z,23.33
2023-05-08T04:14:12.245Z,29.25
2023-05-08T04:19:19.285Z,32.50
2023-05-08T04:24:24.753Z,37.95
2023-05-08T04:29:28.274Z,32.13
2023-05-08T04:34:31.475Z,34.70
2023-05-08T04:39:36.995Z,33.45
2023-05-08T04:44:40.452Z,33.47
2023-05-08T04:49:43.735Z,29.58
2023-05-08T04:54:48.294Z,33.70
2023-05-08T04:59:51.647Z,28.58
2023-05-08T05:04:58.699Z,30.60
2023-05-08T05:10:04.306Z,33.50
2023-05-08T05:15:10.365Z,32.35
2023-05-08T05:20:15.023Z,35.97
2023-05-08T05:25:19.901Z,31.67
2023-05-08T05:30:23.248Z,32.53
2023-05-08T05:35:26.800Z,30.80
2023-05-08T05:40:33.452Z,35.47
2023-05-08T05:45:37.006Z,33.70
2023-05-08T05:50:40.571Z,32.00
2023-05-08T05:55:45.188Z,34.45
2023-05-08T06:00:48.643Z,36.47
2023-05-08T06:05:52.152Z,31.05
2023-05-08T06:10:57.363Z,31.45
2023-05-08T06:16:00.534Z,31.58
2023-05-08T06:21:03.706Z,31.25
2023-05-08T06:26:08.227Z,34.17
2023-05-08T06:31:11.603Z,32.85
2023-05-08T06:36:14.800Z,37.60
2023-05-08T06:41:19.316Z,44.08
2023-05-08T06:46:22.739Z,52.45
2023-05-08T06:51:26.260Z,48.13
2023-05-08T06:56:30.833Z,48.00
2023-05-08T07:01:34.145Z,45.47
2023-05-08T07:06:37.345Z,52.03
2023-05-08T07:11:41.789Z,47.10
2023-05-08T07:16:44.958Z,49.20
2023-05-08T07:21:48.216Z,44.88
2023-05-08T07:26:52.778Z,51.55
2023-05-08T07:31:56.784Z,46.25
2023-05-08T07:36:59.907Z,43.15
2023-05-08T07:42:04.528Z,41.60
2023-05-08T07:47:07.705Z,43.40
2023-05-08T07:52:11.280Z,47.58
2023-05-08T07:57:15.942Z,43.17
2023-05-08T08:02:19.084Z,47.80
2023-05-08T08:07:22.187Z,53.13
2023-05-08T08:12:26.921Z,48.45
2023-05-08T08:17:30.121Z,46.10
2023-05-08T08:22:33.447Z,49.75
2023-05-08T08:27:38.084Z,48.92
2023-05-08T08:32:42.473Z,49.30
2023-05-08T08:37:45.657Z,49.28
2023-05-08T08:42:50.197Z,50.83
2023-05-08T08:47:53.839Z,49.97
2023-05-08T08:52:57.627Z,49.00
2023-05-08T08:58:08.132Z,49.45
2023-05-08T09:03:11.506Z,43.97
2023-05-08T09:08:14.750Z,48.33
2023-05-08T09:13:19.927Z,42.28
2023-05-08T09:18:23.205Z,40.63
2023-05-08T09:23:26.350Z,38.63
2023-05-08T09:28:30.899Z,39.88
2023-05-08T09:33:33.963Z,39.13
2023-05-08T09:38:37.977Z,40.47
2023-05-08T09:43:42.706Z,41.28
2023-05-08T09:48:46.428Z,39.92
2023-05-08T09:53:51.531Z,32.85
2023-05-08T09:58:56.182Z,38.75
2023-05-08T10:03:59.684Z,39.38
2023-05-08T10:09:09.607Z,37.25
2023-05-08T10:14:14.087Z,33.35
2023-05-08T10:19:18.232Z,39.75
2023-05-08T10:24:22.062Z,44.95
2023-05-08T10:29:31.165Z,39.95
2023-05-08T10:34:34.990Z,40.80
2023-05-08T10:39:38.531Z,40.58
2023-05-08T10:44:43.045Z,46.90
2023-05-08T10:49:52.979Z,40.53
2023-05-08T10:55:07.701Z,33.05
2023-05-08T11:00:12.955Z,42.08
2023-05-08T11:05:16.864Z,47.80
2023-05-08T11:10:20.187Z,52.03
2023-05-08T11:15:36.516Z,53.53
2023-05-08T11:20:40.246Z,50.85
2023-05-08T11:25:44.241Z,51.75
2023-05-08T11:30:48.710Z,54.00
2023-05-08T11:35:53.352Z,56.45
2023-05-08T11:40:58.980Z,55.13
2023-05-08T11:46:05.003Z,54.08
2023-05-08T11:51:08.183Z,50.65
2023-05-08T11:56:11.472Z,51.38
2023-05-08T12:01:20.821Z,51.80
2023-05-08T12:06:23.981Z,49.58
2023-05-08T12:11:27.261Z,42.80
2023-05-08T12:16:31.820Z,41.97
2023-05-08T12:21:34.997Z,44.45
2023-05-08T12:26:38.351Z,43.72
2023-05-08T12:31:42.839Z,46.50
2023-05-08T12:36:46.078Z,49.38
2023-05-08T12:41:49.917Z,50.95
2023-05-08T12:46:55.549Z,49.58
2023-05-08T12:52:02.963Z,52.80
2023-05-08T12:57:12.761Z,44.55
2023-05-08T13:02:18.271Z,46.35
2023-05-08T13:07:21.570Z,43.83
2023-05-08T13:12:24.731Z,50.63
2023-05-08T13:17:29.254Z,48.45
2023-05-08T13:22:32.415Z,49.97
2023-05-08T13:27:35.590Z,48.08
2023-05-08T13:32:40.207Z,45.80
2023-05-08T13:37:43.442Z,49.30
2023-05-08T13:42:46.608Z,54.03
2023-05-08T13:47:51.406Z,48.05
2023-05-08T13:52:55.181Z,45.17
2023-05-08T13:57:58.854Z,43.00
2023-05-08T14:03:03.895Z,44.75
2023-05-08T14:08:07.150Z,44.28
2023-05-08T14:13:10.390Z,38.38
2023-05-08T14:18:15.024Z,40.45
2023-05-08T14:23:18.163Z,44.33
2023-05-08T14:28:21.272Z,43.20
2023-05-08T14:33:25.779Z,39.22
2023-05-08T14:38:28.959Z,44.10
2023-05-08T14:43:32.151Z,43.78
2023-05-08T14:48:36.659Z,43.50
2023-05-08T14:53:39.906Z,46.22
2023-05-08T14:58:43.115Z,42.83
2023-05-08T15:03:53.151Z,44.15
2023-05-08T15:08:56.580Z,48.27
2023-05-08T15:14:01.852Z,51.88
2023-05-08T15:19:06.430Z,51.92
2023-05-08T15:24:09.886Z,51.60
2023-05-08T15:29:13.063Z,57.65
2023-05-08T15:34:17.569Z,50.00
2023-05-08T15:39:20.851Z,56.95
2023-05-08T15:44:26.604Z,51.28
2023-05-08T15:49:33.246Z,53.80
2023-05-08T15:54:36.327Z,50.78
2023-05-08T15:59:39.654Z,50.90
2023-05-08T16:04:44.340Z,49.60
2023-05-08T16:09:47.483Z,47.53
2023-05-08T16:14:50.930Z,52.00
2023-05-08T16:19:55.461Z,48.72
2023-05-08T16:24:58.628Z,51.88
2023-05-08T16:30:01.836Z,51.38
2023-05-08T16:35:06.965Z,48.75
2023-05-08T16:40:10.685Z,48.50
2023-05-08T16:45:14.047Z,51.22
2023-05-08T16:50:18.756Z,48.05
2023-05-08T16:55:21.987Z,50.13
2023-05-08T17:00:25.184Z,53.45
2023-05-08T17:05:29.653Z,51.55
2023-05-08T17:10:32.963Z,43.58
2023-05-08T17:15:36.154Z,47.67
2023-05-08T17:20:42.420Z,64.95
2023-05-08T17:25:45.659Z,113.90
2023-05-08T17:30:48.907Z,49.88
2023-05-08T17:35:53.484Z,62.55
2023-05-08T17:40:57.111Z,42.17
2023-05-08T17:46:00.369Z,44.10
2023-05-08T17:51:05.101Z,49.78
2023-05-08T17:56:08.714Z,49.63
2023-05-08T18:01:11.889Z,45.03
2023-05-08T18:06:17.336Z,41.80
2023-05-08T18:11:21.310Z,45.42
2023-05-08T18:16:24.496Z,48.05
2023-05-08T18:21:29.107Z,44.85
2023-05-08T18:26:32.220Z,49.30
2023-05-08T18:31:35.394Z,46.30
2023-05-08T18:36:39.974Z,42.35
2023-05-08T18:41:43.119Z,46.10
2023-05-08T18:46:46.464Z,39.83
2023-05-08T18:51:51.149Z,41.95
2023-05-08T18:56:54.431Z,48.28
2023-05-08T19:01:57.560Z,50.50
2023-05-08T19:07:02.109Z,53.47
2023-05-08T19:12:05.303Z,47.03
2023-05-08T19:17:08.433Z,46.17
2023-05-08T19:22:12.989Z,39.55
2023-05-08T19:27:16.083Z,53.42
2023-05-08T19:32:19.172Z,50.40
2023-05-08T19:37:23.739Z,49.13
2023-05-08T19:42:27.074Z,45.70
2023-05-08T19:47:30.400Z,55.28
2023-05-08T19:52:35.056Z,42.22
2023-05-08T19:57:38.171Z,47.13
2023-05-08T20:02:41.458Z,41.22
2023-05-08T20:07:46.109Z,37.63
2023-05-08T20:12:49.343Z,37.08
2023-05-08T20:17:52.870Z,40.45
2023-05-08T20:22:57.987Z,40.67
2023-05-08T20:28:01.221Z,39.05
2023-05-08T20:33:05.184Z,53.40
2023-05-08T20:38:10.006Z,39.33
2023-05-08T20:43:13.175Z,44.83
2023-05-08T20:48:16.418Z,49.40
2023-05-08T20:53:21.004Z,42.90
2023-05-08T20:58:24.177Z,45.22
2023-05-08T21:03:27.334Z,47.60
2023-05-08T21:08:31.958Z,47.10
2023-05-08T21:13:35.237Z,49.97
2023-05-08T21:18:38.430Z,54.08
2023-05-08T21:23:42.975Z,64.50
2023-05-08T21:28:46.259Z,78.57
2023-05-08T21:33:49.698Z,65.43
2023-05-08T21:38:54.171Z,70.80
2023-05-08T21:43:57.475Z,75.07
2023-05-08T21:49:00.646Z,68.00
2023-05-08T21:54:05.298Z,68.70
2023-05-08T21:59:08.537Z,65.28
2023-05-08T22:04:11.642Z,70.38
2023-05-08T22:09:16.111Z,65.38
2023-05-08T22:14:19.194Z,74.40
2023-05-08T22:19:22.266Z,71.10
2023-05-08T22:24:27.035Z,64.72
2023-05-08T22:29:30.341Z,67.07
2023-05-08T22:34:33.517Z,72.95
2023-05-08T22:39:38.034Z,62.58
2023-05-08T22:44:41.259Z,72.53
2023-05-08T22:49:44.396Z,60.97
2023-05-08T22:54:48.928Z,57.88
2023-05-08T22:59:52.134Z,58.42
2023-05-08T23:04:56.598Z,56.42
2023-05-08T23:10:01.185Z,60.17
2023-05-08T23:15:04.640Z,55.53
2023-05-08T23:20:08.352Z,74.50
2023-05-08T23:25:13.140Z,65.85
2023-05-08T23:30:17.050Z,67.68
2023-05-08T23:35:20.352Z,54.95
2023-05-08T23:40:25.003Z,56.28
2023-05-08T23:45:28.234Z,58.42
2023-05-08T23:50:31.389Z,64.50
2023-05-08T23:55:37.805Z,63.67
